sensor_id;sensor_type;location;lat;lon;timestamp;temperature;humidity
22073;DHT22;11202;50.916;4.698;2022-11-11T00:01:14;9.50;99.90
22073;DHT22;11202;50.916;4.698;2022-11-11T00:03:40;9.70;99.90
22073;DHT22;11202;50.916;4.698;2022-11-11T00:06:11;9.70;99.90
22073;DHT22;11202;50.916;4.698;2022-11-11T00:08:40;9.80;99.90
22073;DHT22;11202;50.916;4.698;2022-11-11T00:11:08;9.80;99.90
22073;DHT22;11202;50.916;4.698;2022-11-11T00:13:35;9.80;99.90
22073;DHT22;11202;50.916;4.698;2022-11-11T00:16:13;9.70;99.90
22073;DHT22;11202;50.916;4.698;2022-11-11T00:18:40;9.70;99.90
22073;DHT22;11202;50.916;4.698;2022-11-11T00:21:25;9.70;99.90
22073;DHT22;11202;50.916;4.698;2022-11-11T00:24:27;9.60;99.90
22073;DHT22;11202;50.916;4.698;2022-11-11T00:27:12;9.50;99.90
22073;DHT22;11202;50.916;4.698;2022-11-11T00:29:39;9.40;99.90
22073;DHT22;11202;50.916;4.698;2022-11-11T00:32:07;9.40;99.90
22073;DHT22;11202;50.916;4.698;2022-11-11T00:34:48;9.40;99.90
22073;DHT22;11202;50.916;4.698;2022-11-11T00:37:38;9.40;99.90
22073;DHT22;11202;50.916;4.698;2022-11-11T00:40:07;9.30;99.90
22073;DHT22;11202;50.916;4.698;2022-11-11T00:42:33;9.30;99.90
22073;DHT22;11202;50.916;4.698;2022-11-11T00:44:59;9.20;99.90
22073;DHT22;11202;50.916;4.698;2022-11-11T00:47:25;9.20;99.90
22073;DHT22;11202;50.916;4.698;2022-11-11T00:50:27;9.00;99.90
22073;DHT22;11202;50.916;4.698;2022-11-11T00:53:31;9.00;99.90
22073;DHT22;11202;50.916;4.698;2022-11-11T00:56:05;9.10;99.90
22073;DHT22;11202;50.916;4.698;2022-11-11T00:58:30;9.10;99.90
22073;DHT22;11202;50.916;4.698;2022-11-11T01:00:58;9.10;99.90
22073;DHT22;11202;50.916;4.698;2022-11-11T01:03:28;9.10;99.90
22073;DHT22;11202;50.916;4.698;2022-11-11T01:05:59;9.20;99.90
22073;DHT22;11202;50.916;4.698;2022-11-11T01:08:27;9.10;99.90
22073;DHT22;11202;50.916;4.698;2022-11-11T01:10:53;9.10;99.90
22073;DHT22;11202;50.916;4.698;2022-11-11T01:13:23;9.10;99.90
22073;DHT22;11202;50.916;4.698;2022-11-11T01:15:51;9.20;99.90
22073;DHT22;11202;50.916;4.698;2022-11-11T01:18:21;9.20;99.90
22073;DHT22;11202;50.916;4.698;2022-11-11T01:20:47;9.20;99.90
22073;DHT22;11202;50.916;4.698;2022-11-11T01:23:13;9.20;99.90
22073;DHT22;11202;50.916;4.698;2022-11-11T01:25:41;9.20;99.90
22073;DHT22;11202;50.916;4.698;2022-11-11T01:28:10;9.30;99.90
22073;DHT22;11202;50.916;4.698;2022-11-11T01:30:36;9.30;99.90
22073;DHT22;11202;50.916;4.698;2022-11-11T01:33:04;9.30;99.90
22073;DHT22;11202;50.916;4.698;2022-11-11T01:35:30;9.30;99.90
22073;DHT22;11202;50.916;4.698;2022-11-11T01:37:59;9.40;99.90
22073;DHT22;11202;50.916;4.698;2022-11-11T01:40:25;9.40;99.90
22073;DHT22;11202;50.916;4.698;2022-11-11T01:45:53;9.40;99.90
22073;DHT22;11202;50.916;4.698;2022-11-11T01:51:34;9.40;99.90
22073;DHT22;11202;50.916;4.698;2022-11-11T01:54:05;9.30;99.90
22073;DHT22;11202;50.916;4.698;2022-11-11T01:56:32;9.30;99.90
22073;DHT22;11202;50.916;4.698;2022-11-11T01:59:02;9.30;99.90
22073;DHT22;11202;50.916;4.698;2022-11-11T02:01:31;9.40;99.90
22073;DHT22;11202;50.916;4.698;2022-11-11T02:03:59;9.40;99.90
22073;DHT22;11202;50.916;4.698;2022-11-11T02:06:46;9.50;99.90
22073;DHT22;11202;50.916;4.698;2022-11-11T02:09:15;9.50;99.90
22073;DHT22;11202;50.916;4.698;2022-11-11T02:11:45;9.60;99.90
22073;DHT22;11202;50.916;4.698;2022-11-11T02:14:33;9.60;99.90
22073;DHT22;11202;50.916;4.698;2022-11-11T02:17:04;9.60;99.90
22073;DHT22;11202;50.916;4.698;2022-11-11T02:19:43;9.60;99.90
22073;DHT22;11202;50.916;4.698;2022-11-11T02:22:13;9.60;99.90
22073;DHT22;11202;50.916;4.698;2022-11-11T02:24:41;9.70;99.90
22073;DHT22;11202;50.916;4.698;2022-11-11T02:27:09;9.70;99.90
22073;DHT22;11202;50.916;4.698;2022-11-11T02:29:36;9.70;99.90
22073;DHT22;11202;50.916;4.698;2022-11-11T02:32:03;9.60;99.90
22073;DHT22;11202;50.916;4.698;2022-11-11T02:34:33;9.60;99.90
22073;DHT22;11202;50.916;4.698;2022-11-11T02:37:04;9.70;99.90
22073;DHT22;11202;50.916;4.698;2022-11-11T02:39:33;9.70;99.90
22073;DHT22;11202;50.916;4.698;2022-11-11T02:42:01;9.80;99.90
22073;DHT22;11202;50.916;4.698;2022-11-11T02:44:35;9.80;99.90
22073;DHT22;11202;50.916;4.698;2022-11-11T02:47:02;9.90;99.90
22073;DHT22;11202;50.916;4.698;2022-11-11T02:49:28;9.90;99.90
22073;DHT22;11202;50.916;4.698;2022-11-11T02:51:53;9.90;99.90
22073;DHT22;11202;50.916;4.698;2022-11-11T02:54:21;9.90;99.90
22073;DHT22;11202;50.916;4.698;2022-11-11T02:56:50;9.90;99.90
22073;DHT22;11202;50.916;4.698;2022-11-11T02:59:38;9.90;99.90
22073;DHT22;11202;50.916;4.698;2022-11-11T03:02:05;9.90;99.90
22073;DHT22;11202;50.916;4.698;2022-11-11T03:04:31;9.90;99.90
22073;DHT22;11202;50.916;4.698;2022-11-11T03:06:59;9.70;99.90
22073;DHT22;11202;50.916;4.698;2022-11-11T03:09:25;9.70;99.90
22073;DHT22;11202;50.916;4.698;2022-11-11T03:11:51;9.80;99.90
22073;DHT22;11202;50.916;4.698;2022-11-11T03:14:16;9.80;99.90
22073;DHT22;11202;50.916;4.698;2022-11-11T03:16:42;9.90;99.90
22073;DHT22;11202;50.916;4.698;2022-11-11T03:19:26;10.00;99.90
22073;DHT22;11202;50.916;4.698;2022-11-11T03:21:52;10.00;99.90
22073;DHT22;11202;50.916;4.698;2022-11-11T03:24:20;9.90;99.90
22073;DHT22;11202;50.916;4.698;2022-11-11T03:26:46;10.00;99.90
22073;DHT22;11202;50.916;4.698;2022-11-11T03:29:12;10.00;99.90
22073;DHT22;11202;50.916;4.698;2022-11-11T03:31:38;10.00;99.90
22073;DHT22;11202;50.916;4.698;2022-11-11T03:34:03;9.90;99.90
22073;DHT22;11202;50.916;4.698;2022-11-11T03:36:44;9.80;99.90
22073;DHT22;11202;50.916;4.698;2022-11-11T03:39:28;9.80;99.90
22073;DHT22;11202;50.916;4.698;2022-11-11T03:41:55;9.80;99.90
22073;DHT22;11202;50.916;4.698;2022-11-11T03:44:21;9.80;99.90
22073;DHT22;11202;50.916;4.698;2022-11-11T03:46:46;9.70;99.90
22073;DHT22;11202;50.916;4.698;2022-11-11T03:49:12;9.80;99.90
22073;DHT22;11202;50.916;4.698;2022-11-11T03:51:37;9.70;99.90
22073;DHT22;11202;50.916;4.698;2022-11-11T03:54:03;9.80;99.90
22073;DHT22;11202;50.916;4.698;2022-11-11T03:56:29;9.70;99.90
22073;DHT22;11202;50.916;4.698;2022-11-11T03:58:54;9.70;99.90
22073;DHT22;11202;50.916;4.698;2022-11-11T04:01:20;9.60;99.90
22073;DHT22;11202;50.916;4.698;2022-11-11T04:04:04;9.60;99.90
22073;DHT22;11202;50.916;4.698;2022-11-11T04:06:50;9.50;99.90
22073;DHT22;11202;50.916;4.698;2022-11-11T04:09:34;9.40;99.90
22073;DHT22;11202;50.916;4.698;2022-11-11T04:12:19;9.40;99.90
22073;DHT22;11202;50.916;4.698;2022-11-11T04:14:44;9.40;99.90
22073;DHT22;11202;50.916;4.698;2022-11-11T04:17:31;9.30;99.90
22073;DHT22;11202;50.916;4.698;2022-11-11T04:19:56;9.30;99.90
22073;DHT22;11202;50.916;4.698;2022-11-11T04:22:41;9.30;99.90
22073;DHT22;11202;50.916;4.698;2022-11-11T04:25:07;9.10;99.90
22073;DHT22;11202;50.916;4.698;2022-11-11T04:27:52;9.10;99.90
22073;DHT22;11202;50.916;4.698;2022-11-11T04:30:40;9.00;99.90
22073;DHT22;11202;50.916;4.698;2022-11-11T04:33:06;8.90;99.90
22073;DHT22;11202;50.916;4.698;2022-11-11T04:35:32;8.90;99.90
22073;DHT22;11202;50.916;4.698;2022-11-11T04:37:57;8.90;99.90
22073;DHT22;11202;50.916;4.698;2022-11-11T04:40:43;9.00;99.90
22073;DHT22;11202;50.916;4.698;2022-11-11T04:43:28;9.00;99.90
22073;DHT22;11202;50.916;4.698;2022-11-11T04:45:57;8.90;99.90
22073;DHT22;11202;50.916;4.698;2022-11-11T04:48:23;8.80;99.90
22073;DHT22;11202;50.916;4.698;2022-11-11T04:50:49;8.80;99.90
22073;DHT22;11202;50.916;4.698;2022-11-11T04:53:17;8.80;99.90
22073;DHT22;11202;50.916;4.698;2022-11-11T04:55:45;8.80;99.90
22073;DHT22;11202;50.916;4.698;2022-11-11T04:58:32;8.80;99.90
22073;DHT22;11202;50.916;4.698;2022-11-11T05:00:58;8.70;99.90
22073;DHT22;11202;50.916;4.698;2022-11-11T05:03:26;8.70;99.90
22073;DHT22;11202;50.916;4.698;2022-11-11T05:05:59;8.70;99.90
22073;DHT22;11202;50.916;4.698;2022-11-11T05:08:46;8.60;99.90
22073;DHT22;11202;50.916;4.698;2022-11-11T05:11:26;8.70;99.90
22073;DHT22;11202;50.916;4.698;2022-11-11T05:13:52;8.60;99.90
22073;DHT22;11202;50.916;4.698;2022-11-11T05:16:48;8.50;99.90
22073;DHT22;11202;50.916;4.698;2022-11-11T05:19:32;8.30;99.90
22073;DHT22;11202;50.916;4.698;2022-11-11T05:22:29;8.30;99.90
22073;DHT22;11202;50.916;4.698;2022-11-11T05:24:56;8.30;99.90
22073;DHT22;11202;50.916;4.698;2022-11-11T05:27:40;8.30;99.90
22073;DHT22;11202;50.916;4.698;2022-11-11T05:30:10;8.30;99.90
22073;DHT22;11202;50.916;4.698;2022-11-11T05:32:38;8.30;99.90
22073;DHT22;11202;50.916;4.698;2022-11-11T05:35:05;8.30;99.90
22073;DHT22;11202;50.916;4.698;2022-11-11T05:37:31;8.30;99.90
22073;DHT22;11202;50.916;4.698;2022-11-11T05:39:56;8.40;99.90
22073;DHT22;11202;50.916;4.698;2022-11-11T05:42:22;8.40;99.90
22073;DHT22;11202;50.916;4.698;2022-11-11T05:44:48;8.40;99.90
22073;DHT22;11202;50.916;4.698;2022-11-11T05:47:14;8.40;99.90
22073;DHT22;11202;50.916;4.698;2022-11-11T05:49:39;8.30;99.90
22073;DHT22;11202;50.916;4.698;2022-11-11T05:52:06;8.30;99.90
22073;DHT22;11202;50.916;4.698;2022-11-11T05:54:32;8.20;99.90
22073;DHT22;11202;50.916;4.698;2022-11-11T05:57:00;8.20;99.90
22073;DHT22;11202;50.916;4.698;2022-11-11T05:59:28;8.10;99.90
22073;DHT22;11202;50.916;4.698;2022-11-11T06:01:54;8.10;99.90
22073;DHT22;11202;50.916;4.698;2022-11-11T06:04:22;8.10;99.90
22073;DHT22;11202;50.916;4.698;2022-11-11T06:06:48;8.10;99.90
22073;DHT22;11202;50.916;4.698;2022-11-11T06:09:13;8.00;99.90
22073;DHT22;11202;50.916;4.698;2022-11-11T06:11:39;8.00;99.90
22073;DHT22;11202;50.916;4.698;2022-11-11T06:14:05;7.90;99.90
22073;DHT22;11202;50.916;4.698;2022-11-11T06:16:30;7.90;99.90
22073;DHT22;11202;50.916;4.698;2022-11-11T06:18:56;7.90;99.90
22073;DHT22;11202;50.916;4.698;2022-11-11T06:21:22;7.90;99.90
22073;DHT22;11202;50.916;4.698;2022-11-11T06:23:47;7.90;99.90
22073;DHT22;11202;50.916;4.698;2022-11-11T06:26:15;7.80;99.90
22073;DHT22;11202;50.916;4.698;2022-11-11T06:28:48;8.00;99.90
22073;DHT22;11202;50.916;4.698;2022-11-11T06:31:16;7.70;99.90
22073;DHT22;11202;50.916;4.698;2022-11-11T06:33:43;7.70;99.90
22073;DHT22;11202;50.916;4.698;2022-11-11T06:36:10;7.70;99.90
22073;DHT22;11202;50.916;4.698;2022-11-11T06:38:38;7.60;99.90
22073;DHT22;11202;50.916;4.698;2022-11-11T06:41:04;7.80;99.90
22073;DHT22;11202;50.916;4.698;2022-11-11T06:43:30;7.70;99.90
22073;DHT22;11202;50.916;4.698;2022-11-11T06:45:57;7.70;99.90
22073;DHT22;11202;50.916;4.698;2022-11-11T06:48:25;7.70;99.90
22073;DHT22;11202;50.916;4.698;2022-11-11T06:50:52;7.70;99.90
22073;DHT22;11202;50.916;4.698;2022-11-11T06:53:18;7.70;99.90
22073;DHT22;11202;50.916;4.698;2022-11-11T06:55:44;7.70;99.90
22073;DHT22;11202;50.916;4.698;2022-11-11T06:58:15;7.80;99.90
22073;DHT22;11202;50.916;4.698;2022-11-11T07:00:41;8.00;99.90
22073;DHT22;11202;50.916;4.698;2022-11-11T07:03:10;7.80;99.90
22073;DHT22;11202;50.916;4.698;2022-11-11T07:05:36;7.80;99.90
22073;DHT22;11202;50.916;4.698;2022-11-11T07:08:03;7.90;99.90
22073;DHT22;11202;50.916;4.698;2022-11-11T07:10:33;7.80;99.90
22073;DHT22;11202;50.916;4.698;2022-11-11T07:12:59;7.70;99.90
22073;DHT22;11202;50.916;4.698;2022-11-11T07:15:27;7.60;99.90
22073;DHT22;11202;50.916;4.698;2022-11-11T07:17:53;7.60;99.90
22073;DHT22;11202;50.916;4.698;2022-11-11T07:20:19;7.70;99.90
22073;DHT22;11202;50.916;4.698;2022-11-11T07:22:45;7.80;99.90
22073;DHT22;11202;50.916;4.698;2022-11-11T07:25:11;7.80;99.90
22073;DHT22;11202;50.916;4.698;2022-11-11T07:27:38;7.80;99.90
22073;DHT22;11202;50.916;4.698;2022-11-11T07:30:05;8.00;99.90
22073;DHT22;11202;50.916;4.698;2022-11-11T07:32:31;8.00;99.90
22073;DHT22;11202;50.916;4.698;2022-11-11T07:34:57;8.10;99.90
22073;DHT22;11202;50.916;4.698;2022-11-11T07:37:22;8.30;99.90
22073;DHT22;11202;50.916;4.698;2022-11-11T07:39:48;8.30;99.90
22073;DHT22;11202;50.916;4.698;2022-11-11T07:42:14;8.30;99.90
22073;DHT22;11202;50.916;4.698;2022-11-11T07:44:40;8.20;99.90
22073;DHT22;11202;50.916;4.698;2022-11-11T07:47:09;8.30;99.90
22073;DHT22;11202;50.916;4.698;2022-11-11T07:49:34;8.60;99.90
22073;DHT22;11202;50.916;4.698;2022-11-11T07:52:00;8.70;99.90
22073;DHT22;11202;50.916;4.698;2022-11-11T07:54:28;8.90;99.90
22073;DHT22;11202;50.916;4.698;2022-11-11T07:56:54;9.10;99.90
22073;DHT22;11202;50.916;4.698;2022-11-11T07:59:19;9.30;99.90
22073;DHT22;11202;50.916;4.698;2022-11-11T08:01:45;9.40;99.90
22073;DHT22;11202;50.916;4.698;2022-11-11T08:04:11;9.60;99.90
22073;DHT22;11202;50.916;4.698;2022-11-11T08:06:36;9.80;99.90
22073;DHT22;11202;50.916;4.698;2022-11-11T08:09:05;10.00;99.90
22073;DHT22;11202;50.916;4.698;2022-11-11T08:11:35;10.20;99.90
22073;DHT22;11202;50.916;4.698;2022-11-11T08:14:20;10.30;99.90
22073;DHT22;11202;50.916;4.698;2022-11-11T08:16:45;10.50;99.90
22073;DHT22;11202;50.916;4.698;2022-11-11T08:19:11;10.50;99.90
22073;DHT22;11202;50.916;4.698;2022-11-11T08:21:37;10.80;99.90
22073;DHT22;11202;50.916;4.698;2022-11-11T08:24:02;11.00;99.90
22073;DHT22;11202;50.916;4.698;2022-11-11T08:26:28;11.20;99.90
22073;DHT22;11202;50.916;4.698;2022-11-11T08:28:54;11.20;99.90
22073;DHT22;11202;50.916;4.698;2022-11-11T08:31:19;11.50;99.90
22073;DHT22;11202;50.916;4.698;2022-11-11T08:33:45;11.60;99.90
22073;DHT22;11202;50.916;4.698;2022-11-11T08:36:10;11.50;99.90
22073;DHT22;11202;50.916;4.698;2022-11-11T08:38:37;11.30;99.90
22073;DHT22;11202;50.916;4.698;2022-11-11T08:41:06;11.20;99.90
22073;DHT22;11202;50.916;4.698;2022-11-11T08:43:32;11.30;99.90
22073;DHT22;11202;50.916;4.698;2022-11-11T08:45:59;11.50;99.90
22073;DHT22;11202;50.916;4.698;2022-11-11T08:48:25;11.50;99.90
22073;DHT22;11202;50.916;4.698;2022-11-11T08:50:52;11.30;99.90
22073;DHT22;11202;50.916;4.698;2022-11-11T08:53:18;11.30;99.90
22073;DHT22;11202;50.916;4.698;2022-11-11T08:55:44;11.30;99.90
22073;DHT22;11202;50.916;4.698;2022-11-11T08:58:11;11.30;99.90
22073;DHT22;11202;50.916;4.698;2022-11-11T09:00:37;11.40;99.90
22073;DHT22;11202;50.916;4.698;2022-11-11T09:03:05;11.40;99.90
22073;DHT22;11202;50.916;4.698;2022-11-11T09:05:33;11.60;99.90
22073;DHT22;11202;50.916;4.698;2022-11-11T09:08:00;11.70;99.90
22073;DHT22;11202;50.916;4.698;2022-11-11T09:10:26;11.80;99.90
22073;DHT22;11202;50.916;4.698;2022-11-11T09:12:56;11.80;99.90
22073;DHT22;11202;50.916;4.698;2022-11-11T09:15:22;12.00;99.90
22073;DHT22;11202;50.916;4.698;2022-11-11T09:17:48;12.00;99.90
22073;DHT22;11202;50.916;4.698;2022-11-11T09:20:16;12.10;99.90
22073;DHT22;11202;50.916;4.698;2022-11-11T09:22:44;12.20;99.90
22073;DHT22;11202;50.916;4.698;2022-11-11T09:25:10;12.30;99.90
22073;DHT22;11202;50.916;4.698;2022-11-11T09:27:35;12.30;99.90
22073;DHT22;11202;50.916;4.698;2022-11-11T09:30:01;12.40;99.90
22073;DHT22;11202;50.916;4.698;2022-11-11T09:32:27;12.50;99.90
22073;DHT22;11202;50.916;4.698;2022-11-11T09:34:52;12.40;99.90
22073;DHT22;11202;50.916;4.698;2022-11-11T09:37:20;12.60;99.90
22073;DHT22;11202;50.916;4.698;2022-11-11T09:39:45;12.80;99.90
22073;DHT22;11202;50.916;4.698;2022-11-11T09:42:36;12.80;99.90
22073;DHT22;11202;50.916;4.698;2022-11-11T09:50:27;12.80;99.90
22073;DHT22;11202;50.916;4.698;2022-11-11T09:55:35;13.20;99.90
22073;DHT22;11202;50.916;4.698;2022-11-11T09:58:05;13.20;99.90
22073;DHT22;11202;50.916;4.698;2022-11-11T10:00:36;13.10;99.90
22073;DHT22;11202;50.916;4.698;2022-11-11T10:08:19;13.40;99.90
22073;DHT22;11202;50.916;4.698;2022-11-11T10:10:51;13.50;99.90
22073;DHT22;11202;50.916;4.698;2022-11-11T10:13:32;13.50;99.90
22073;DHT22;11202;50.916;4.698;2022-11-11T10:21:41;13.30;99.90
22073;DHT22;11202;50.916;4.698;2022-11-11T10:24:15;13.30;99.90
22073;DHT22;11202;50.916;4.698;2022-11-11T10:26:43;13.20;99.90
22073;DHT22;11202;50.916;4.698;2022-11-11T10:29:18;13.20;99.90
22073;DHT22;11202;50.916;4.698;2022-11-11T10:32:01;13.20;99.90
22073;DHT22;11202;50.916;4.698;2022-11-11T10:34:34;13.20;99.90
22073;DHT22;11202;50.916;4.698;2022-11-11T10:37:00;13.20;99.90
22073;DHT22;11202;50.916;4.698;2022-11-11T10:42:30;13.30;99.90
22073;DHT22;11202;50.916;4.698;2022-11-11T10:44:59;13.50;99.90
22073;DHT22;11202;50.916;4.698;2022-11-11T10:47:40;13.40;99.90
22073;DHT22;11202;50.916;4.698;2022-11-11T10:50:33;13.20;99.90
22073;DHT22;11202;50.916;4.698;2022-11-11T10:53:20;13.20;99.90
22073;DHT22;11202;50.916;4.698;2022-11-11T10:58:53;13.30;99.90
22073;DHT22;11202;50.916;4.698;2022-11-11T11:01:54;13.30;99.90
22073;DHT22;11202;50.916;4.698;2022-11-11T11:04:34;13.30;99.90
22073;DHT22;11202;50.916;4.698;2022-11-11T11:07:04;13.50;99.90
22073;DHT22;11202;50.916;4.698;2022-11-11T11:09:47;13.50;99.90
22073;DHT22;11202;50.916;4.698;2022-11-11T11:12:17;13.50;99.90
22073;DHT22;11202;50.916;4.698;2022-11-11T11:14:47;13.60;99.90
22073;DHT22;11202;50.916;4.698;2022-11-11T11:17:44;13.60;99.90
22073;DHT22;11202;50.916;4.698;2022-11-11T11:20:17;13.70;99.90
22073;DHT22;11202;50.916;4.698;2022-11-11T11:22:54;13.80;99.90
22073;DHT22;11202;50.916;4.698;2022-11-11T11:25:23;13.80;99.90
22073;DHT22;11202;50.916;4.698;2022-11-11T11:27:51;13.80;99.90
22073;DHT22;11202;50.916;4.698;2022-11-11T11:30:24;13.90;99.90
22073;DHT22;11202;50.916;4.698;2022-11-11T11:32:57;14.00;99.90
22073;DHT22;11202;50.916;4.698;2022-11-11T11:35:43;14.30;99.90
22073;DHT22;11202;50.916;4.698;2022-11-11T11:38:11;14.50;99.90
22073;DHT22;11202;50.916;4.698;2022-11-11T11:40:51;14.50;99.90
22073;DHT22;11202;50.916;4.698;2022-11-11T11:43:38;14.70;99.90
22073;DHT22;11202;50.916;4.698;2022-11-11T11:46:18;14.80;99.90
22073;DHT22;11202;50.916;4.698;2022-11-11T11:54:14;14.80;99.90
22073;DHT22;11202;50.916;4.698;2022-11-11T11:56:52;15.00;99.90
22073;DHT22;11202;50.916;4.698;2022-11-11T11:59:25;14.90;99.90
22073;DHT22;11202;50.916;4.698;2022-11-11T12:05:21;14.80;99.90
22073;DHT22;11202;50.916;4.698;2022-11-11T12:10:27;15.10;99.90
22073;DHT22;11202;50.916;4.698;2022-11-11T12:16:26;15.20;99.90
22073;DHT22;11202;50.916;4.698;2022-11-11T12:22:16;15.30;99.90
22073;DHT22;11202;50.916;4.698;2022-11-11T12:27:33;15.40;99.90
22073;DHT22;11202;50.916;4.698;2022-11-11T12:30:15;15.40;99.90
22073;DHT22;11202;50.916;4.698;2022-11-11T12:36:35;15.50;99.90
22073;DHT22;11202;50.916;4.698;2022-11-11T12:39:26;15.70;99.90
22073;DHT22;11202;50.916;4.698;2022-11-11T12:42:14;15.90;99.90
22073;DHT22;11202;50.916;4.698;2022-11-11T12:52:46;16.60;99.90
22073;DHT22;11202;50.916;4.698;2022-11-11T12:55:41;16.80;99.90
22073;DHT22;11202;50.916;4.698;2022-11-11T13:03:33;16.70;99.90
22073;DHT22;11202;50.916;4.698;2022-11-11T13:11:36;16.80;99.90
22073;DHT22;11202;50.916;4.698;2022-11-11T13:14:32;16.70;99.90
22073;DHT22;11202;50.916;4.698;2022-11-11T13:17:00;16.70;99.90
22073;DHT22;11202;50.916;4.698;2022-11-11T13:22:14;16.80;99.90
22073;DHT22;11202;50.916;4.698;2022-11-11T13:24:42;16.80;99.90
22073;DHT22;11202;50.916;4.698;2022-11-11T13:27:19;16.90;99.90
22073;DHT22;11202;50.916;4.698;2022-11-11T13:33:02;16.80;99.90
22073;DHT22;11202;50.916;4.698;2022-11-11T13:35:30;16.80;99.90
22073;DHT22;11202;50.916;4.698;2022-11-11T13:37:59;16.60;99.90
22073;DHT22;11202;50.916;4.698;2022-11-11T13:40:33;16.70;99.90
22073;DHT22;11202;50.916;4.698;2022-11-11T13:43:03;16.70;99.90
22073;DHT22;11202;50.916;4.698;2022-11-11T13:45:39;16.80;99.90
22073;DHT22;11202;50.916;4.698;2022-11-11T13:48:14;16.90;99.90
22073;DHT22;11202;50.916;4.698;2022-11-11T13:50:40;17.10;99.90
22073;DHT22;11202;50.916;4.698;2022-11-11T13:53:24;17.00;99.90
22073;DHT22;11202;50.916;4.698;2022-11-11T13:55:52;16.90;99.90
22073;DHT22;11202;50.916;4.698;2022-11-11T13:58:31;16.90;99.90
22073;DHT22;11202;50.916;4.698;2022-11-11T14:01:05;17.10;99.90
22073;DHT22;11202;50.916;4.698;2022-11-11T14:13:53;16.60;99.90
22073;DHT22;11202;50.916;4.698;2022-11-11T14:21:53;16.40;99.90
22073;DHT22;11202;50.916;4.698;2022-11-11T14:24:39;16.30;99.90
22073;DHT22;11202;50.916;4.698;2022-11-11T14:29:48;16.10;99.90
22073;DHT22;11202;50.916;4.698;2022-11-11T14:33:15;16.00;99.90
22073;DHT22;11202;50.916;4.698;2022-11-11T14:35:43;16.10;99.90
22073;DHT22;11202;50.916;4.698;2022-11-11T14:38:53;15.80;99.90
22073;DHT22;11202;50.916;4.698;2022-11-11T14:44:37;15.40;99.90
22073;DHT22;11202;50.916;4.698;2022-11-11T14:49:48;15.40;99.90
22073;DHT22;11202;50.916;4.698;2022-11-11T14:55:12;15.00;99.90
22073;DHT22;11202;50.916;4.698;2022-11-11T14:58:10;14.60;99.90
22073;DHT22;11202;50.916;4.698;2022-11-11T15:09:16;14.80;99.90
22073;DHT22;11202;50.916;4.698;2022-11-11T15:12:01;14.50;99.90
22073;DHT22;11202;50.916;4.698;2022-11-11T15:14:53;14.30;99.90
22073;DHT22;11202;50.916;4.698;2022-11-11T15:23:17;13.70;99.90
22073;DHT22;11202;50.916;4.698;2022-11-11T15:31:31;12.90;99.90
22073;DHT22;11202;50.916;4.698;2022-11-11T15:39:16;12.40;99.90
22073;DHT22;11202;50.916;4.698;2022-11-11T15:41:46;12.20;99.90
22073;DHT22;11202;50.916;4.698;2022-11-11T15:44:33;12.20;99.90
22073;DHT22;11202;50.916;4.698;2022-11-11T15:47:00;12.30;99.90
22073;DHT22;11202;50.916;4.698;2022-11-11T15:49:46;12.20;99.90
22073;DHT22;11202;50.916;4.698;2022-11-11T15:52:27;12.10;99.90
22073;DHT22;11202;50.916;4.698;2022-11-11T15:54:54;11.90;99.90
22073;DHT22;11202;50.916;4.698;2022-11-11T15:57:30;11.80;99.90
22073;DHT22;11202;50.916;4.698;2022-11-11T15:59:58;11.70;99.90
22073;DHT22;11202;50.916;4.698;2022-11-11T16:02:26;11.60;99.90
22073;DHT22;11202;50.916;4.698;2022-11-11T16:04:59;11.40;99.90
22073;DHT22;11202;50.916;4.698;2022-11-11T16:07:37;11.30;99.90
22073;DHT22;11202;50.916;4.698;2022-11-11T16:12:48;11.20;99.90
22073;DHT22;11202;50.916;4.698;2022-11-11T16:15:35;11.10;99.90
22073;DHT22;11202;50.916;4.698;2022-11-11T16:18:05;11.00;99.90
22073;DHT22;11202;50.916;4.698;2022-11-11T16:21:05;10.90;99.90
22073;DHT22;11202;50.916;4.698;2022-11-11T16:23:34;11.00;99.90
22073;DHT22;11202;50.916;4.698;2022-11-11T16:26:02;10.90;99.90
22073;DHT22;11202;50.916;4.698;2022-11-11T16:28:37;10.80;99.90
22073;DHT22;11202;50.916;4.698;2022-11-11T16:31:42;10.80;99.90
22073;DHT22;11202;50.916;4.698;2022-11-11T16:36:59;10.80;99.90
22073;DHT22;11202;50.916;4.698;2022-11-11T16:39:26;10.90;99.90
22073;DHT22;11202;50.916;4.698;2022-11-11T16:41:53;10.90;99.90
22073;DHT22;11202;50.916;4.698;2022-11-11T16:44:33;10.70;99.90
22073;DHT22;11202;50.916;4.698;2022-11-11T16:47:01;10.70;99.90
22073;DHT22;11202;50.916;4.698;2022-11-11T16:49:39;10.60;99.90
22073;DHT22;11202;50.916;4.698;2022-11-11T16:54:37;10.60;99.90
22073;DHT22;11202;50.916;4.698;2022-11-11T16:57:05;10.50;99.90
22073;DHT22;11202;50.916;4.698;2022-11-11T17:00:01;10.40;99.90
22073;DHT22;11202;50.916;4.698;2022-11-11T17:02:28;10.40;99.90
22073;DHT22;11202;50.916;4.698;2022-11-11T17:04:56;10.40;99.90
22073;DHT22;11202;50.916;4.698;2022-11-11T17:07:40;10.20;99.90
22073;DHT22;11202;50.916;4.698;2022-11-11T17:10:13;10.00;99.90
22073;DHT22;11202;50.916;4.698;2022-11-11T17:12:42;10.00;99.90
22073;DHT22;11202;50.916;4.698;2022-11-11T17:15:10;9.80;99.90
22073;DHT22;11202;50.916;4.698;2022-11-11T17:17:42;9.70;99.90
22073;DHT22;11202;50.916;4.698;2022-11-11T17:20:14;9.60;99.90
22073;DHT22;11202;50.916;4.698;2022-11-11T17:25:15;9.40;99.90
22073;DHT22;11202;50.916;4.698;2022-11-11T17:27:40;9.40;99.90
22073;DHT22;11202;50.916;4.698;2022-11-11T17:30:08;9.30;99.90
22073;DHT22;11202;50.916;4.698;2022-11-11T17:32:34;9.20;99.90
22073;DHT22;11202;50.916;4.698;2022-11-11T17:35:02;9.20;99.90
22073;DHT22;11202;50.916;4.698;2022-11-11T17:37:28;9.10;99.90
22073;DHT22;11202;50.916;4.698;2022-11-11T17:39:56;9.20;99.90
22073;DHT22;11202;50.916;4.698;2022-11-11T17:42:26;9.40;99.90
22073;DHT22;11202;50.916;4.698;2022-11-11T17:44:51;9.60;99.90
22073;DHT22;11202;50.916;4.698;2022-11-11T17:47:17;9.50;99.90
22073;DHT22;11202;50.916;4.698;2022-11-11T17:49:42;9.40;99.90
22073;DHT22;11202;50.916;4.698;2022-11-11T17:52:08;9.30;99.90
22073;DHT22;11202;50.916;4.698;2022-11-11T17:54:34;9.30;99.90
22073;DHT22;11202;50.916;4.698;2022-11-11T17:57:00;9.20;99.90
22073;DHT22;11202;50.916;4.698;2022-11-11T17:59:25;9.20;99.90
22073;DHT22;11202;50.916;4.698;2022-11-11T18:01:51;9.10;99.90
22073;DHT22;11202;50.916;4.698;2022-11-11T18:04:17;9.00;99.90
22073;DHT22;11202;50.916;4.698;2022-11-11T18:06:43;9.00;99.90
22073;DHT22;11202;50.916;4.698;2022-11-11T18:09:08;9.20;99.90
22073;DHT22;11202;50.916;4.698;2022-11-11T18:11:34;9.30;99.90
22073;DHT22;11202;50.916;4.698;2022-11-11T18:14:01;9.00;99.90
22073;DHT22;11202;50.916;4.698;2022-11-11T18:16:27;9.00;99.90
22073;DHT22;11202;50.916;4.698;2022-11-11T18:18:52;8.60;99.90
22073;DHT22;11202;50.916;4.698;2022-11-11T18:21:21;8.40;99.90
22073;DHT22;11202;50.916;4.698;2022-11-11T18:23:51;8.40;99.90
22073;DHT22;11202;50.916;4.698;2022-11-11T18:26:20;8.40;99.90
22073;DHT22;11202;50.916;4.698;2022-11-11T18:28:46;8.40;99.90
22073;DHT22;11202;50.916;4.698;2022-11-11T18:31:13;8.40;99.90